Terminal Aerodrome Forecast
Issued by NWS Wakefield, VA

Home | Current Version | Previous Version | Text Only | Print | Product List | Glossary On
Versions: 1 2 3 4 5 6 7 8 9 10 11 12 13 14 15 16 17 18 19 20 21 22 23 24 25 26 27 28 29
000
FTUS41 KAKQ 041400 AAB
TAFSBY
TAF AMD
KSBY 041430Z 0415/0512 24008KT 3SM -RA BR BKN005 OVC040
      TEMPO 0415/0417 1SM RA BR OVC005
     FM041900 32006KT 4SM -DZ BR OVC007
     FM042100 02007KT 5SM -DZ BR OVC007
     FM050000 01010KT 3SM -RA BR OVC007=

USA.gov is the U.S. government's official web portal to all federal, state and local government web resources and services.